createdAt,value
2023-03-10T00:01:26.817Z,72.41
2023-03-10T00:03:55.094Z,72.50
2023-03-10T00:06:24.475Z,72.53
2023-03-10T00:08:51.178Z,72.39
2023-03-10T00:11:18.266Z,72.09
2023-03-10T00:13:44.784Z,72.57
2023-03-10T00:16:20.180Z,72.71
2023-03-10T00:18:47.143Z,71.95
2023-03-10T00:21:16.705Z,72.41
2023-03-10T00:23:43.293Z,72.36
2023-03-10T00:26:12.834Z,72.40
2023-03-10T00:28:39.248Z,72.19
2023-03-10T00:31:10.199Z,72.15
2023-03-10T00:33:37.049Z,72.64
2023-03-10T00:36:18.047Z,72.40
2023-03-10T00:38:45.575Z,73.14
2023-03-10T00:41:14.534Z,73.02
2023-03-10T00:43:41.102Z,73.17
2023-03-10T00:46:07.988Z,73.57
2023-03-10T00:48:35.445Z,73.25
2023-03-10T00:51:02.110Z,73.24
2023-03-10T00:53:28.977Z,73.51
2023-03-10T00:56:10.687Z,73.66
2023-03-10T00:58:37.704Z,73.95
2023-03-10T01:01:05.672Z,73.86
2023-03-10T01:03:32.815Z,73.87
2023-03-10T01:05:59.211Z,73.87
2023-03-10T01:08:27.063Z,74.06
2023-03-10T01:10:53.468Z,74.43
2023-03-10T01:13:20.180Z,74.28
2023-03-10T01:15:50.721Z,74.34
2023-03-10T01:18:19.938Z,74.75
2023-03-10T01:20:46.936Z,75.51
2023-03-10T01:23:23.710Z,75.72
2023-03-10T01:25:50.708Z,75.67
2023-03-10T01:28:19.160Z,76.61
2023-03-10T01:30:46.358Z,77.56
2023-03-10T01:33:13.478Z,76.93
2023-03-10T01:35:40.265Z,77.47
2023-03-10T01:38:07.331Z,78.33
2023-03-10T01:40:36.288Z,78.52
2023-03-10T01:43:19.387Z,79.71
2023-03-10T01:45:45.729Z,79.29
2023-03-10T01:48:14.565Z,79.57
2023-03-10T01:50:43.163Z,80.36
2023-03-10T01:53:12.747Z,80.76
2023-03-10T01:55:47.236Z,81.36
2023-03-10T01:58:16.708Z,81.53
2023-03-10T02:00:44.220Z,81.69
2023-03-10T02:03:21.426Z,82.84
2023-03-10T02:05:53.249Z,83.01
2023-03-10T02:08:21.801Z,83.29
2023-03-10T02:10:49.562Z,83.70
2023-03-10T02:13:16.058Z,84.07
2023-03-10T02:15:42.434Z,83.83
2023-03-10T02:18:12.491Z,83.99
2023-03-10T02:20:55.379Z,84.20
2023-03-10T02:23:32.841Z,84.64
2023-03-10T02:26:08.225Z,84.73
2023-03-10T02:28:34.604Z,85.72
2023-03-10T02:31:02.647Z,85.39
2023-03-10T02:33:31.896Z,85.09
2023-03-10T02:36:22.623Z,86.12
2023-03-10T02:38:50.028Z,86.61
2023-03-10T02:41:29.310Z,85.35
2023-03-10T02:43:58.052Z,85.10
2023-03-10T02:46:24.530Z,85.97
2023-03-10T02:48:51.116Z,85.61
2023-03-10T02:51:21.435Z,85.68
2023-03-10T02:53:51.384Z,85.69
2023-03-10T02:56:18.100Z,85.92
2023-03-10T02:58:44.907Z,85.40
2023-03-10T03:01:11.394Z,85.70
2023-03-10T03:03:38.026Z,85.48
2023-03-10T03:06:05.130Z,85.29
2023-03-10T03:08:33.339Z,85.63
2023-03-10T03:11:00.427Z,85.40
2023-03-10T03:13:27.285Z,85.24
2023-03-10T03:15:53.731Z,84.89
2023-03-10T03:18:22.468Z,84.87
2023-03-10T03:20:50.113Z,85.27
2023-03-10T03:23:16.514Z,85.01
2023-03-10T03:25:43.393Z,85.00
2023-03-10T03:28:11.871Z,85.63
2023-03-10T03:30:38.946Z,84.98
2023-03-10T03:33:07.342Z,85.19
2023-03-10T03:35:36.065Z,85.12
2023-03-10T03:38:05.051Z,85.17
2023-03-10T03:40:35.031Z,85.31
2023-03-10T03:43:03.110Z,85.51
2023-03-10T03:45:31.688Z,84.83
2023-03-10T03:47:58.875Z,84.62
2023-03-10T03:50:25.820Z,84.74
2023-03-10T03:52:53.048Z,84.46
2023-03-10T03:55:19.666Z,84.40
2023-03-10T03:57:46.372Z,84.25
2023-03-10T04:00:17.771Z,83.69
2023-03-10T04:02:44.278Z,83.36
2023-03-10T04:05:11.141Z,83.66
2023-03-10T04:07:44.285Z,83.94
2023-03-10T04:10:13.422Z,83.88
2023-03-10T04:12:41.300Z,84.23
2023-03-10T04:15:09.402Z,84.50
2023-03-10T04:17:36.121Z,84.50
2023-03-10T04:20:08.079Z,84.34
2023-03-10T04:22:36.252Z,84.29
2023-03-10T04:25:03.138Z,83.96
2023-03-10T04:27:29.502Z,84.21
2023-03-10T04:29:55.972Z,83.88
2023-03-10T04:32:22.478Z,83.86
2023-03-10T04:34:49.072Z,84.73
2023-03-10T04:37:15.573Z,84.87
2023-03-10T04:39:42.269Z,85.65
2023-03-10T04:42:09.930Z,86.06
2023-03-10T04:44:36.595Z,86.55
2023-03-10T04:47:03.405Z,85.89
2023-03-10T04:49:29.803Z,85.95
2023-03-10T04:51:57.695Z,86.73
2023-03-10T04:54:24.100Z,87.23
2023-03-10T04:56:51.977Z,86.59
2023-03-10T04:59:21.341Z,86.91
2023-03-10T05:01:48.721Z,86.93
2023-03-10T05:04:15.247Z,86.90
2023-03-10T05:06:42.016Z,86.82
2023-03-10T05:09:08.787Z,86.93
2023-03-10T05:11:35.188Z,86.10
2023-03-10T05:14:01.674Z,86.60
2023-03-10T05:16:28.399Z,85.90
2023-03-10T05:18:54.921Z,86.00
2023-03-10T05:21:21.933Z,86.31
2023-03-10T05:23:49.190Z,86.01
2023-03-10T05:26:16.302Z,85.96
2023-03-10T05:28:43.046Z,86.08
2023-03-10T05:31:11.307Z,86.16
2023-03-10T05:33:37.734Z,86.33
2023-03-10T05:36:08.953Z,85.76
2023-03-10T05:38:36.984Z,85.98
2023-03-10T05:41:08.092Z,85.48
2023-03-10T05:43:36.269Z,85.82
2023-03-10T05:46:05.460Z,85.16
2023-03-10T05:48:31.952Z,85.01
2023-03-10T05:50:59.177Z,85.39
2023-03-10T08:07:59.888Z,81.16
2023-03-10T08:10:26.273Z,81.34
2023-03-10T08:12:54.300Z,81.08
2023-03-10T08:15:20.659Z,80.44
2023-03-10T08:17:47.033Z,80.48
2023-03-10T08:20:13.506Z,80.15
2023-03-10T08:22:40.320Z,80.23
2023-03-10T08:25:08.013Z,80.06
2023-03-10T08:27:34.584Z,79.84
2023-03-10T08:30:01.174Z,79.69
2023-03-10T08:32:27.683Z,79.57
2023-03-10T08:34:54.256Z,79.35
2023-03-10T08:37:20.697Z,78.75
2023-03-10T08:39:47.297Z,78.34
2023-03-10T08:42:13.953Z,77.73
2023-03-10T08:44:41.532Z,75.96
2023-03-10T08:47:08.125Z,75.09
2023-03-10T08:49:34.627Z,72.17
2023-03-10T08:52:01.309Z,70.72
2023-03-10T08:54:27.870Z,69.87
2023-03-10T08:56:54.345Z,67.33
2023-03-10T08:59:21.187Z,67.22
2023-03-10T09:01:47.759Z,68.68
2023-03-10T09:04:14.238Z,69.56
2023-03-10T09:06:41.036Z,70.86
2023-03-10T09:09:10.200Z,70.92
2023-03-10T09:11:39.157Z,71.43
2023-03-10T09:14:06.527Z,72.15
2023-03-10T09:16:33.812Z,72.59
2023-03-10T09:19:00.962Z,72.89
2023-03-10T09:21:31.973Z,73.08
2023-03-10T09:24:00.734Z,74.57
2023-03-10T09:26:27.506Z,74.45
2023-03-10T09:28:56.840Z,74.72
2023-03-10T09:31:28.512Z,75.17
2023-03-10T09:33:55.115Z,74.46
2023-03-10T09:36:21.833Z,71.90
2023-03-10T09:38:48.266Z,72.94
2023-03-10T09:41:35.182Z,72.44
2023-03-10T09:44:08.349Z,71.54
2023-03-10T09:46:42.704Z,73.02
2023-03-10T09:49:18.965Z,73.14
2023-03-10T09:51:49.219Z,73.10
2023-03-10T09:54:33.860Z,72.85
2023-03-10T09:57:00.750Z,72.12
2023-03-10T09:59:43.038Z,70.92
2023-03-10T10:02:23.395Z,71.69
2023-03-10T10:04:54.022Z,70.71
2023-03-10T10:07:23.543Z,69.60
2023-03-10T10:10:04.240Z,69.28
2023-03-10T10:12:30.603Z,68.58
2023-03-10T10:15:01.355Z,68.73
2023-03-10T10:18:05.514Z,68.35
2023-03-10T10:20:53.833Z,68.75
2023-03-10T10:23:42.550Z,68.52
2023-03-10T10:26:15.416Z,68.47
2023-03-10T10:28:48.211Z,68.33
2023-03-10T10:31:25.486Z,70.22
2023-03-10T10:34:28.882Z,71.29
2023-03-10T10:36:57.088Z,71.87
2023-03-10T10:39:33.172Z,69.51
2023-03-10T10:42:24.160Z,70.65
2023-03-10T10:44:57.825Z,70.49
2023-03-10T10:47:26.536Z,68.83
2023-03-10T10:49:54.129Z,66.60
2023-03-10T10:52:26.803Z,69.04
2023-03-10T10:55:00.172Z,70.15
2023-03-10T10:57:33.355Z,69.53
2023-03-10T11:00:33.802Z,66.85
2023-03-10T11:03:01.104Z,65.24
2023-03-10T11:05:38.712Z,64.59
2023-03-10T11:08:27.530Z,63.94
2023-03-10T11:11:06.871Z,62.66
2023-03-10T11:13:44.412Z,61.15
2023-03-10T11:16:27.865Z,59.53
2023-03-10T11:19:37.038Z,59.42
2023-03-10T11:22:29.252Z,60.07
2023-03-10T11:25:07.092Z,59.05
2023-03-10T11:28:09.249Z,60.73
2023-03-10T11:30:39.045Z,59.14
2023-03-10T11:33:24.429Z,59.40
2023-03-10T11:36:01.012Z,59.66
2023-03-10T11:38:30.802Z,59.42
2023-03-10T11:41:01.796Z,60.11
2023-03-10T11:43:37.034Z,60.01
2023-03-10T11:46:12.834Z,60.50
2023-03-10T11:49:12.809Z,58.67
2023-03-10T11:51:51.296Z,57.26
2023-03-10T11:54:26.840Z,57.86
2023-03-10T11:56:56.492Z,57.44
2023-03-10T11:59:27.082Z,57.19
2023-03-10T12:02:13.878Z,57.12
2023-03-10T12:05:02.608Z,57.78
2023-03-10T12:07:42.684Z,56.30
2023-03-10T12:10:12.243Z,56.91
2023-03-10T12:12:47.397Z,57.64
2023-03-10T12:15:37.015Z,57.90
2023-03-10T12:18:06.226Z,58.47
2023-03-10T12:20:34.672Z,59.38
2023-03-10T12:23:26.863Z,59.15
2023-03-10T12:25:53.217Z,59.38
2023-03-10T12:28:24.428Z,59.47
2023-03-10T12:30:56.247Z,59.22
2023-03-10T12:33:37.182Z,58.51
2023-03-10T12:36:16.981Z,57.23
2023-03-10T12:38:49.322Z,57.67
2023-03-10T12:41:41.654Z,57.86
2023-03-10T12:44:22.964Z,58.67
2023-03-10T12:47:09.689Z,58.00
2023-03-10T12:49:46.111Z,58.40
2023-03-10T12:52:24.720Z,58.32
2023-03-10T12:55:03.941Z,59.06
2023-03-10T12:57:57.590Z,59.95
2023-03-10T13:00:39.758Z,61.52
2023-03-10T13:03:22.859Z,62.36
2023-03-10T13:06:22.106Z,61.74
2023-03-10T13:08:53.680Z,60.99
2023-03-10T13:11:25.130Z,61.05
2023-03-10T13:13:57.221Z,61.88
2023-03-10T13:16:23.699Z,62.73
2023-03-10T13:18:52.359Z,63.50
2023-03-10T13:21:30.100Z,65.51
2023-03-10T13:23:58.312Z,67.72
2023-03-10T13:26:26.830Z,68.26
2023-03-10T13:28:58.743Z,69.72
2023-03-10T13:31:34.461Z,69.79
2023-03-10T13:34:17.697Z,68.86
2023-03-10T13:36:45.112Z,69.13
2023-03-10T13:39:21.833Z,68.91
2023-03-10T13:41:56.273Z,68.07
2023-03-10T13:44:41.887Z,69.55
2023-03-10T13:47:18.745Z,70.83
2023-03-10T13:49:52.167Z,72.11
2023-03-10T13:52:25.026Z,72.53
2023-03-10T13:55:03.946Z,74.76
2023-03-10T13:57:34.473Z,75.90
2023-03-10T14:00:01.917Z,74.99
2023-03-10T14:02:35.250Z,76.36
2023-03-10T14:05:02.050Z,76.93
2023-03-10T14:07:30.786Z,76.37
2023-03-10T14:10:04.340Z,77.16
2023-03-10T14:12:50.102Z,77.22
2023-03-10T14:15:19.455Z,76.59
2023-03-10T14:18:17.193Z,77.06
2023-03-10T14:20:45.363Z,77.34
2023-03-10T14:23:23.693Z,77.31
2023-03-10T14:25:52.958Z,77.20
2023-03-10T14:28:24.998Z,77.71
2023-03-10T14:30:51.503Z,77.16
2023-03-10T14:33:17.988Z,77.02
2023-03-10T14:35:45.900Z,77.50
2023-03-10T14:38:12.710Z,77.41
2023-03-10T14:40:42.353Z,77.55
2023-03-10T14:43:15.533Z,78.62
2023-03-10T14:45:44.386Z,78.77
2023-03-10T14:48:19.512Z,79.23
2023-03-10T14:50:47.550Z,80.75
2023-03-10T14:53:16.584Z,80.85
2023-03-10T14:55:47.701Z,81.09
2023-03-10T14:58:17.978Z,81.93
2023-03-10T15:00:44.363Z,82.59
2023-03-10T15:03:14.208Z,82.71
2023-03-10T15:05:48.221Z,83.24
2023-03-10T15:08:15.636Z,83.00
2023-03-10T15:10:46.620Z,83.36
2023-03-10T15:13:15.980Z,83.27
2023-03-10T15:15:44.394Z,84.62
2023-03-10T15:18:13.337Z,84.47
2023-03-10T15:20:40.260Z,84.67
2023-03-10T15:23:08.413Z,84.51
2023-03-10T15:25:35.029Z,84.91
2023-03-10T15:28:01.411Z,84.75
2023-03-10T15:30:31.381Z,84.87
2023-03-10T15:32:58.003Z,85.31
2023-03-10T15:35:25.185Z,84.43
2023-03-10T15:37:52.625Z,83.79
2023-03-10T15:40:21.905Z,82.19
2023-03-10T15:42:48.667Z,81.13
2023-03-10T15:45:18.107Z,79.91
2023-03-10T15:47:46.007Z,79.13
2023-03-10T15:50:14.151Z,79.48
2023-03-10T15:52:45.941Z,79.89
2023-03-10T15:55:14.827Z,79.32
2023-03-10T15:57:41.467Z,78.65
2023-03-10T16:00:09.286Z,78.87
2023-03-10T16:02:35.655Z,77.23
2023-03-10T16:05:02.277Z,77.32
2023-03-10T16:07:28.675Z,77.38
2023-03-10T16:09:57.782Z,76.30
2023-03-10T16:12:24.158Z,76.41
2023-03-10T16:14:50.678Z,76.89
2023-03-10T16:17:17.166Z,76.93
2023-03-10T16:19:43.763Z,77.70
2023-03-10T16:22:10.353Z,78.36
2023-03-10T16:24:36.715Z,78.40
2023-03-10T16:27:03.177Z,77.84
2023-03-10T16:29:29.632Z,78.21
2023-03-10T16:31:55.983Z,79.25
2023-03-10T16:34:22.674Z,76.94
2023-03-10T16:36:50.340Z,77.17
2023-03-10T16:39:17.922Z,77.38
2023-03-10T16:41:44.534Z,76.90
2023-03-10T16:44:12.985Z,77.42
2023-03-10T16:46:40.830Z,77.61
2023-03-10T16:49:07.393Z,76.48
2023-03-10T16:51:37.702Z,76.72
2023-03-10T16:54:07.015Z,75.75
2023-03-10T16:56:37.646Z,75.86
2023-03-10T16:59:05.491Z,75.67
2023-03-10T17:01:33.038Z,75.80
2023-03-10T17:03:59.808Z,75.48
2023-03-10T17:06:33.792Z,74.59
2023-03-10T17:09:00.690Z,73.97
2023-03-10T17:11:30.281Z,74.12
2023-03-10T17:13:59.549Z,73.77
2023-03-10T17:16:28.580Z,73.80
2023-03-10T17:18:57.094Z,73.05
2023-03-10T17:21:27.302Z,71.61
2023-03-10T17:23:54.091Z,72.10
2023-03-10T17:26:21.917Z,72.27
2023-03-10T17:28:50.702Z,73.28
2023-03-10T17:31:26.223Z,73.29
2023-03-10T17:33:54.111Z,73.29
2023-03-10T17:36:22.365Z,74.49
2023-03-10T17:38:52.244Z,74.68
2023-03-10T17:41:19.089Z,74.84
2023-03-10T17:43:45.802Z,74.81
2023-03-10T17:46:18.287Z,75.45
2023-03-10T17:48:48.612Z,75.70
2023-03-10T17:51:23.506Z,74.16
2023-03-10T17:53:50.798Z,75.48
2023-03-10T17:56:19.730Z,75.42
2023-03-10T17:58:58.881Z,74.19
2023-03-10T18:01:27.955Z,74.80
2023-03-10T18:03:57.993Z,75.26
2023-03-10T18:06:28.265Z,75.32
2023-03-10T18:08:56.802Z,74.74
2023-03-10T18:11:24.401Z,74.65
2023-03-10T18:13:50.931Z,75.30
2023-03-10T18:16:21.530Z,75.83
2023-03-10T18:24:44.801Z,79.26
2023-03-10T18:27:25.636Z,78.17
2023-03-10T18:30:01.513Z,77.11
2023-03-10T18:32:35.043Z,75.30
2023-03-10T18:35:02.871Z,73.47
2023-03-10T18:37:35.725Z,72.18
2023-03-10T18:43:46.398Z,70.86
2023-03-10T18:46:15.563Z,70.77
2023-03-10T18:48:47.125Z,71.27
2023-03-10T18:51:14.297Z,71.03
2023-03-10T18:53:41.688Z,71.62
2023-03-10T18:56:10.508Z,71.64
2023-03-10T18:58:37.457Z,72.59
2023-03-10T19:01:12.238Z,72.28
2023-03-10T19:03:41.749Z,73.11
2023-03-10T19:06:09.796Z,73.56
2023-03-10T19:08:39.848Z,74.24
2023-03-10T19:11:07.683Z,74.21
2023-03-10T19:13:34.623Z,73.86
2023-03-10T19:16:05.691Z,74.92
2023-03-10T19:18:32.228Z,73.30
2023-03-10T19:21:00.272Z,72.29
2023-03-10T19:23:28.255Z,72.26
2023-03-10T19:25:55.351Z,72.77
2023-03-10T19:28:22.946Z,72.52
2023-03-10T19:30:49.328Z,71.86
2023-03-10T19:33:15.667Z,71.28
2023-03-10T19:35:42.460Z,71.75
2023-03-10T19:38:09.393Z,70.64
2023-03-10T19:40:36.953Z,70.57
2023-03-10T19:43:05.852Z,71.42
2023-03-10T19:45:32.850Z,71.16
2023-03-10T19:48:00.608Z,71.29
2023-03-10T19:50:28.658Z,71.58
2023-03-10T19:52:56.361Z,71.36
2023-03-10T19:55:26.502Z,72.21
2023-03-10T19:57:54.735Z,71.43
2023-03-10T20:00:25.494Z,70.86
2023-03-10T20:02:53.927Z,71.76
2023-03-10T20:05:21.407Z,71.47
2023-03-10T20:07:49.596Z,70.83
2023-03-10T20:10:17.783Z,70.97
2023-03-10T20:12:47.023Z,71.63
2023-03-10T20:15:14.285Z,71.00
2023-03-10T20:17:41.029Z,71.42
2023-03-10T20:20:10.644Z,71.35
2023-03-10T20:22:39.791Z,71.51
2023-03-10T20:25:08.699Z,71.14
2023-03-10T20:27:41.929Z,71.57
2023-03-10T20:30:14.124Z,70.98
2023-03-10T20:32:40.615Z,71.38
2023-03-10T20:35:07.345Z,71.36
2023-03-10T20:37:39.277Z,71.88
2023-03-10T20:40:12.491Z,71.25
2023-03-10T20:42:42.152Z,71.51
2023-03-10T20:45:13.437Z,71.35
2023-03-10T20:47:40.438Z,71.76
2023-03-10T20:50:09.347Z,72.20
2023-03-10T20:52:37.660Z,72.37
2023-03-10T20:55:07.902Z,71.54
2023-03-10T20:57:39.049Z,71.61
2023-03-10T21:00:07.695Z,71.88
2023-03-10T21:02:35.565Z,71.92
2023-03-10T21:05:12.420Z,72.21
2023-03-10T21:07:39.473Z,72.03
2023-03-10T21:10:28.632Z,72.15
2023-03-10T21:12:56.798Z,72.27
2023-03-10T21:15:24.190Z,72.25
2023-03-10T21:17:51.327Z,72.39
2023-03-10T21:20:27.906Z,72.56
2023-03-10T21:22:55.930Z,72.79
2023-03-10T21:25:43.727Z,72.35
2023-03-10T21:28:32.796Z,72.31
2023-03-10T21:31:01.867Z,72.42
2023-03-10T21:33:40.629Z,72.24
2023-03-10T21:36:18.662Z,72.30
2023-03-10T21:38:48.589Z,72.54
2023-03-10T21:41:17.454Z,72.35
2023-03-10T21:43:43.991Z,72.75
2023-03-10T21:46:16.576Z,72.16
2023-03-10T21:48:44.537Z,72.59
2023-03-10T21:51:15.947Z,71.89
2023-03-10T21:53:43.444Z,72.11
2023-03-10T21:56:12.084Z,71.79
2023-03-10T21:58:38.451Z,71.70
2023-03-10T22:01:06.106Z,71.40
2023-03-10T22:03:35.360Z,71.95
2023-03-10T22:06:04.788Z,71.18
2023-03-10T22:08:32.868Z,71.09
2023-03-10T22:11:06.168Z,71.37
2023-03-10T22:13:37.240Z,71.21
2023-03-10T22:16:05.850Z,71.06
2023-03-10T22:18:32.410Z,71.25
2023-03-10T22:20:59.067Z,71.14
2023-03-10T22:23:28.737Z,70.57
2023-03-10T22:25:56.373Z,71.31
2023-03-10T22:28:25.403Z,71.03
2023-03-10T22:30:53.069Z,71.11
2023-03-10T22:33:19.495Z,71.37
2023-03-10T22:35:52.423Z,71.25
2023-03-10T22:38:20.756Z,71.39
2023-03-10T22:40:49.558Z,71.73
2023-03-10T22:43:16.506Z,71.74
2023-03-10T22:45:47.638Z,71.76
2023-03-10T22:48:14.107Z,71.81
2023-03-10T22:50:44.578Z,71.77
2023-03-10T22:53:16.571Z,71.86
2023-03-10T22:55:43.626Z,72.74
2023-03-10T22:58:12.143Z,72.66
2023-03-10T23:00:42.019Z,73.20
2023-03-10T23:03:11.656Z,73.25
2023-03-10T23:05:45.193Z,73.40
2023-03-10T23:08:12.457Z,74.37
2023-03-10T23:10:40.927Z,74.69
2023-03-10T23:13:11.692Z,75.13
2023-03-10T23:15:46.126Z,75.17
2023-03-10T23:18:14.016Z,75.87
2023-03-10T23:20:47.758Z,75.93
2023-03-10T23:23:21.199Z,76.53
2023-03-10T23:25:54.061Z,76.37
2023-03-10T23:28:21.719Z,76.79
2023-03-10T23:33:33.386Z,77.54
2023-03-10T23:36:01.544Z,76.61
2023-03-10T23:38:36.271Z,77.03
2023-03-10T23:41:17.894Z,76.86
2023-03-10T23:49:37.452Z,78.68
2023-03-10T23:52:37.882Z,78.72
2023-03-10T23:55:39.028Z,79.11
2023-03-10T23:58:20.165Z,79.22
